sensor_id;sensor_type;location;lat;lon;timestamp;P1;durP1;ratioP1;P2;durP2;ratioP2
13685;SDS011;6915;48.296;8.874;2022-08-07T00:00:04;5.40;;;4.97;;
13685;SDS011;6915;48.296;8.874;2022-08-07T00:02:31;5.17;;;4.77;;
13685;SDS011;6915;48.296;8.874;2022-08-07T00:04:58;5.37;;;4.97;;
13685;SDS011;6915;48.296;8.874;2022-08-07T00:07:25;5.43;;;5.03;;
13685;SDS011;6915;48.296;8.874;2022-08-07T00:09:52;5.10;;;4.60;;
13685;SDS011;6915;48.296;8.874;2022-08-07T00:12:19;5.30;;;4.90;;
13685;SDS011;6915;48.296;8.874;2022-08-07T00:14:48;5.00;;;4.60;;
13685;SDS011;6915;48.296;8.874;2022-08-07T00:17:15;6.50;;;4.97;;
13685;SDS011;6915;48.296;8.874;2022-08-07T00:19:41;5.03;;;4.73;;
13685;SDS011;6915;48.296;8.874;2022-08-07T00:22:09;6.33;;;5.83;;
13685;SDS011;6915;48.296;8.874;2022-08-07T00:24:36;5.60;;;5.20;;
13685;SDS011;6915;48.296;8.874;2022-08-07T00:27:03;5.30;;;4.87;;
13685;SDS011;6915;48.296;8.874;2022-08-07T00:29:30;5.70;;;5.20;;
13685;SDS011;6915;48.296;8.874;2022-08-07T00:31:59;5.90;;;5.50;;
13685;SDS011;6915;48.296;8.874;2022-08-07T00:34:27;5.50;;;4.80;;
13685;SDS011;6915;48.296;8.874;2022-08-07T00:36:54;5.70;;;5.20;;
13685;SDS011;6915;48.296;8.874;2022-08-07T00:39:21;5.30;;;4.90;;
13685;SDS011;6915;48.296;8.874;2022-08-07T00:41:49;6.00;;;5.00;;
13685;SDS011;6915;48.296;8.874;2022-08-07T00:44:16;5.70;;;4.90;;
13685;SDS011;6915;48.296;8.874;2022-08-07T00:46:44;5.37;;;4.97;;
13685;SDS011;6915;48.296;8.874;2022-08-07T00:49:12;5.27;;;4.77;;
13685;SDS011;6915;48.296;8.874;2022-08-07T00:51:39;5.20;;;4.83;;
13685;SDS011;6915;48.296;8.874;2022-08-07T00:54:06;5.57;;;5.07;;
13685;SDS011;6915;48.296;8.874;2022-08-07T00:56:33;5.03;;;4.63;;
13685;SDS011;6915;48.296;8.874;2022-08-07T00:59:01;5.40;;;5.00;;
13685;SDS011;6915;48.296;8.874;2022-08-07T01:01:29;5.20;;;4.87;;
13685;SDS011;6915;48.296;8.874;2022-08-07T01:03:56;5.67;;;5.27;;
13685;SDS011;6915;48.296;8.874;2022-08-07T01:06:25;5.30;;;4.90;;
13685;SDS011;6915;48.296;8.874;2022-08-07T01:08:52;5.17;;;4.83;;
13685;SDS011;6915;48.296;8.874;2022-08-07T01:11:19;5.50;;;5.17;;
13685;SDS011;6915;48.296;8.874;2022-08-07T01:13:46;8.73;;;5.30;;
13685;SDS011;6915;48.296;8.874;2022-08-07T01:16:13;6.07;;;5.47;;
13685;SDS011;6915;48.296;8.874;2022-08-07T01:23:48;6.00;;;5.40;;
13685;SDS011;6915;48.296;8.874;2022-08-07T01:26:15;5.50;;;5.10;;
13685;SDS011;6915;48.296;8.874;2022-08-07T01:28:45;5.57;;;5.07;;
13685;SDS011;6915;48.296;8.874;2022-08-07T01:31:14;5.80;;;5.30;;
13685;SDS011;6915;48.296;8.874;2022-08-07T01:33:42;6.10;;;5.60;;
13685;SDS011;6915;48.296;8.874;2022-08-07T01:36:09;5.57;;;5.13;;
13685;SDS011;6915;48.296;8.874;2022-08-07T01:38:37;5.37;;;4.97;;
13685;SDS011;6915;48.296;8.874;2022-08-07T01:41:06;5.47;;;5.07;;
13685;SDS011;6915;48.296;8.874;2022-08-07T01:43:34;5.80;;;5.30;;
13685;SDS011;6915;48.296;8.874;2022-08-07T01:46:02;5.67;;;5.17;;
13685;SDS011;6915;48.296;8.874;2022-08-07T01:48:29;5.70;;;5.30;;
13685;SDS011;6915;48.296;8.874;2022-08-07T01:50:57;5.50;;;5.10;;
13685;SDS011;6915;48.296;8.874;2022-08-07T01:53:27;5.23;;;4.83;;
13685;SDS011;6915;48.296;8.874;2022-08-07T01:56:00;6.13;;;5.60;;
13685;SDS011;6915;48.296;8.874;2022-08-07T01:58:33;6.20;;;5.70;;
13685;SDS011;6915;48.296;8.874;2022-08-07T02:01:04;6.60;;;6.10;;
13685;SDS011;6915;48.296;8.874;2022-08-07T02:03:37;6.10;;;5.70;;
13685;SDS011;6915;48.296;8.874;2022-08-07T02:06:09;5.70;;;5.30;;
13685;SDS011;6915;48.296;8.874;2022-08-07T02:08:40;5.77;;;5.27;;
13685;SDS011;6915;48.296;8.874;2022-08-07T02:11:09;5.93;;;5.50;;
13685;SDS011;6915;48.296;8.874;2022-08-07T02:13:38;5.97;;;5.47;;
13685;SDS011;6915;48.296;8.874;2022-08-07T02:16:07;5.53;;;5.07;;
13685;SDS011;6915;48.296;8.874;2022-08-07T02:18:36;5.80;;;5.30;;
13685;SDS011;6915;48.296;8.874;2022-08-07T02:21:04;5.80;;;5.30;;
13685;SDS011;6915;48.296;8.874;2022-08-07T02:23:34;5.77;;;5.33;;
13685;SDS011;6915;48.296;8.874;2022-08-07T02:26:03;6.17;;;5.57;;
13685;SDS011;6915;48.296;8.874;2022-08-07T02:28:32;6.33;;;5.83;;
13685;SDS011;6915;48.296;8.874;2022-08-07T02:31:04;6.13;;;5.53;;
13685;SDS011;6915;48.296;8.874;2022-08-07T02:33:33;6.40;;;5.80;;
13685;SDS011;6915;48.296;8.874;2022-08-07T02:36:02;6.20;;;5.60;;
13685;SDS011;6915;48.296;8.874;2022-08-07T02:38:31;5.60;;;5.20;;
13685;SDS011;6915;48.296;8.874;2022-08-07T02:41:02;5.73;;;5.17;;
13685;SDS011;6915;48.296;8.874;2022-08-07T02:43:30;6.37;;;5.73;;
13685;SDS011;6915;48.296;8.874;2022-08-07T02:45:58;5.93;;;5.43;;
13685;SDS011;6915;48.296;8.874;2022-08-07T02:48:28;6.07;;;5.57;;
13685;SDS011;6915;48.296;8.874;2022-08-07T02:50:55;6.37;;;5.77;;
13685;SDS011;6915;48.296;8.874;2022-08-07T02:53:25;5.77;;;5.17;;
13685;SDS011;6915;48.296;8.874;2022-08-07T02:55:56;5.40;;;4.90;;
13685;SDS011;6915;48.296;8.874;2022-08-07T02:58:27;5.60;;;5.20;;
13685;SDS011;6915;48.296;8.874;2022-08-07T03:00:56;5.57;;;5.17;;
13685;SDS011;6915;48.296;8.874;2022-08-07T03:03:26;5.30;;;4.90;;
13685;SDS011;6915;48.296;8.874;2022-08-07T03:05:56;5.07;;;4.77;;
13685;SDS011;6915;48.296;8.874;2022-08-07T03:08:24;5.83;;;5.27;;
13685;SDS011;6915;48.296;8.874;2022-08-07T03:10:51;5.80;;;5.20;;
13685;SDS011;6915;48.296;8.874;2022-08-07T03:13:20;5.07;;;4.67;;
13685;SDS011;6915;48.296;8.874;2022-08-07T03:15:47;5.30;;;4.90;;
13685;SDS011;6915;48.296;8.874;2022-08-07T03:18:14;5.30;;;5.00;;
13685;SDS011;6915;48.296;8.874;2022-08-07T03:20:44;5.90;;;5.40;;
13685;SDS011;6915;48.296;8.874;2022-08-07T03:23:12;5.90;;;5.03;;
13685;SDS011;6915;48.296;8.874;2022-08-07T03:25:40;5.10;;;4.70;;
13685;SDS011;6915;48.296;8.874;2022-08-07T03:28:09;5.57;;;5.10;;
13685;SDS011;6915;48.296;8.874;2022-08-07T03:30:38;5.63;;;5.17;;
13685;SDS011;6915;48.296;8.874;2022-08-07T03:33:06;6.53;;;4.80;;
13685;SDS011;6915;48.296;8.874;2022-08-07T03:35:35;5.37;;;4.97;;
13685;SDS011;6915;48.296;8.874;2022-08-07T03:38:07;5.53;;;5.03;;
13685;SDS011;6915;48.296;8.874;2022-08-07T03:40:35;5.97;;;4.93;;
13685;SDS011;6915;48.296;8.874;2022-08-07T03:43:02;5.53;;;4.50;;
13685;SDS011;6915;48.296;8.874;2022-08-07T03:45:30;4.60;;;4.30;;
13685;SDS011;6915;48.296;8.874;2022-08-07T03:47:58;5.50;;;5.00;;
13685;SDS011;6915;48.296;8.874;2022-08-07T03:50:26;6.20;;;5.57;;
13685;SDS011;6915;48.296;8.874;2022-08-07T03:52:53;5.50;;;5.10;;
13685;SDS011;6915;48.296;8.874;2022-08-07T03:55:23;5.47;;;5.00;;
13685;SDS011;6915;48.296;8.874;2022-08-07T03:57:51;5.20;;;4.70;;
13685;SDS011;6915;48.296;8.874;2022-08-07T04:00:19;5.80;;;5.30;;
13685;SDS011;6915;48.296;8.874;2022-08-07T04:02:46;5.07;;;4.67;;
13685;SDS011;6915;48.296;8.874;2022-08-07T04:05:13;7.50;;;5.23;;
13685;SDS011;6915;48.296;8.874;2022-08-07T04:07:43;5.00;;;4.70;;
13685;SDS011;6915;48.296;8.874;2022-08-07T04:10:11;5.57;;;5.07;;
13685;SDS011;6915;48.296;8.874;2022-08-07T04:12:40;5.10;;;4.70;;
13685;SDS011;6915;48.296;8.874;2022-08-07T04:15:07;6.13;;;5.47;;
13685;SDS011;6915;48.296;8.874;2022-08-07T04:17:35;5.20;;;4.73;;
13685;SDS011;6915;48.296;8.874;2022-08-07T04:20:03;5.43;;;5.03;;
13685;SDS011;6915;48.296;8.874;2022-08-07T04:22:34;6.00;;;5.50;;
13685;SDS011;6915;48.296;8.874;2022-08-07T04:25:01;6.00;;;5.60;;
13685;SDS011;6915;48.296;8.874;2022-08-07T04:27:28;5.70;;;5.17;;
13685;SDS011;6915;48.296;8.874;2022-08-07T04:29:57;6.03;;;5.20;;
13685;SDS011;6915;48.296;8.874;2022-08-07T04:32:24;5.13;;;4.70;;
13685;SDS011;6915;48.296;8.874;2022-08-07T04:34:51;5.67;;;4.73;;
13685;SDS011;6915;48.296;8.874;2022-08-07T04:37:19;5.03;;;4.63;;
13685;SDS011;6915;48.296;8.874;2022-08-07T04:39:46;4.87;;;4.47;;
13685;SDS011;6915;48.296;8.874;2022-08-07T04:42:13;5.20;;;4.90;;
13685;SDS011;6915;48.296;8.874;2022-08-07T04:44:40;6.00;;;4.97;;
13685;SDS011;6915;48.296;8.874;2022-08-07T04:47:09;5.83;;;5.30;;
13685;SDS011;6915;48.296;8.874;2022-08-07T04:49:41;4.97;;;4.60;;
13685;SDS011;6915;48.296;8.874;2022-08-07T04:52:13;4.87;;;4.57;;
13685;SDS011;6915;48.296;8.874;2022-08-07T04:54:51;4.60;;;4.30;;
13685;SDS011;6915;48.296;8.874;2022-08-07T04:57:24;5.00;;;4.50;;
13685;SDS011;6915;48.296;8.874;2022-08-07T04:59:54;4.67;;;4.30;;
13685;SDS011;6915;48.296;8.874;2022-08-07T05:02:29;4.97;;;4.57;;
13685;SDS011;6915;48.296;8.874;2022-08-07T05:05:02;6.13;;;4.47;;
13685;SDS011;6915;48.296;8.874;2022-08-07T05:07:35;4.97;;;3.90;;
13685;SDS011;6915;48.296;8.874;2022-08-07T05:10:07;3.93;;;3.73;;
13685;SDS011;6915;48.296;8.874;2022-08-07T05:12:40;4.20;;;3.90;;
13685;SDS011;6915;48.296;8.874;2022-08-07T05:15:10;3.83;;;3.53;;
13685;SDS011;6915;48.296;8.874;2022-08-07T05:17:46;3.87;;;3.57;;
13685;SDS011;6915;48.296;8.874;2022-08-07T05:20:16;3.70;;;3.50;;
13685;SDS011;6915;48.296;8.874;2022-08-07T05:22:49;3.77;;;3.47;;
13685;SDS011;6915;48.296;8.874;2022-08-07T05:25:18;3.50;;;3.20;;
13685;SDS011;6915;48.296;8.874;2022-08-07T05:27:47;3.87;;;3.57;;
13685;SDS011;6915;48.296;8.874;2022-08-07T05:30:16;3.40;;;3.20;;
13685;SDS011;6915;48.296;8.874;2022-08-07T05:32:43;3.57;;;3.27;;
13685;SDS011;6915;48.296;8.874;2022-08-07T05:35:13;3.50;;;3.30;;
13685;SDS011;6915;48.296;8.874;2022-08-07T05:37:42;3.83;;;3.43;;
13685;SDS011;6915;48.296;8.874;2022-08-07T05:40:10;3.23;;;3.03;;
13685;SDS011;6915;48.296;8.874;2022-08-07T05:42:38;3.70;;;3.40;;
13685;SDS011;6915;48.296;8.874;2022-08-07T05:45:06;3.70;;;3.50;;
13685;SDS011;6915;48.296;8.874;2022-08-07T05:47:34;3.70;;;3.20;;
13685;SDS011;6915;48.296;8.874;2022-08-07T05:50:03;3.43;;;3.13;;
13685;SDS011;6915;48.296;8.874;2022-08-07T05:52:31;3.77;;;3.20;;
13685;SDS011;6915;48.296;8.874;2022-08-07T05:54:58;3.93;;;3.53;;
13685;SDS011;6915;48.296;8.874;2022-08-07T05:57:26;2.90;;;2.70;;
13685;SDS011;6915;48.296;8.874;2022-08-07T05:59:55;4.43;;;2.57;;
13685;SDS011;6915;48.296;8.874;2022-08-07T06:02:24;3.10;;;2.80;;
13685;SDS011;6915;48.296;8.874;2022-08-07T06:04:54;5.70;;;3.77;;
13685;SDS011;6915;48.296;8.874;2022-08-07T06:07:26;3.10;;;2.90;;
13685;SDS011;6915;48.296;8.874;2022-08-07T06:09:53;2.90;;;2.70;;
13685;SDS011;6915;48.296;8.874;2022-08-07T06:12:21;4.47;;;2.73;;
13685;SDS011;6915;48.296;8.874;2022-08-07T06:14:48;2.90;;;2.60;;
13685;SDS011;6915;48.296;8.874;2022-08-07T06:17:15;2.53;;;2.43;;
13685;SDS011;6915;48.296;8.874;2022-08-07T06:19:44;3.20;;;2.47;;
13685;SDS011;6915;48.296;8.874;2022-08-07T06:22:13;2.57;;;2.47;;
13685;SDS011;6915;48.296;8.874;2022-08-07T06:24:42;2.90;;;2.53;;
13685;SDS011;6915;48.296;8.874;2022-08-07T06:27:09;4.20;;;2.60;;
13685;SDS011;6915;48.296;8.874;2022-08-07T06:29:44;4.13;;;2.70;;
13685;SDS011;6915;48.296;8.874;2022-08-07T06:32:11;3.20;;;2.90;;
13685;SDS011;6915;48.296;8.874;2022-08-07T06:34:38;3.30;;;3.00;;
13685;SDS011;6915;48.296;8.874;2022-08-07T06:37:05;3.00;;;2.80;;
13685;SDS011;6915;48.296;8.874;2022-08-07T06:39:32;3.50;;;3.00;;
13685;SDS011;6915;48.296;8.874;2022-08-07T06:42:01;2.93;;;2.73;;
13685;SDS011;6915;48.296;8.874;2022-08-07T06:44:31;2.93;;;2.73;;
13685;SDS011;6915;48.296;8.874;2022-08-07T06:47:00;2.90;;;2.77;;
13685;SDS011;6915;48.296;8.874;2022-08-07T06:49:28;3.50;;;3.20;;
13685;SDS011;6915;48.296;8.874;2022-08-07T06:51:55;3.50;;;3.20;;
13685;SDS011;6915;48.296;8.874;2022-08-07T06:54:24;3.20;;;2.87;;
13685;SDS011;6915;48.296;8.874;2022-08-07T06:56:52;3.13;;;2.93;;
13685;SDS011;6915;48.296;8.874;2022-08-07T06:59:22;3.50;;;3.20;;
13685;SDS011;6915;48.296;8.874;2022-08-07T07:01:52;4.30;;;3.30;;
13685;SDS011;6915;48.296;8.874;2022-08-07T07:04:22;4.33;;;3.33;;
13685;SDS011;6915;48.296;8.874;2022-08-07T07:06:49;3.27;;;3.00;;
13685;SDS011;6915;48.296;8.874;2022-08-07T07:09:18;3.97;;;3.17;;
13685;SDS011;6915;48.296;8.874;2022-08-07T07:14:48;3.37;;;3.07;;
13685;SDS011;6915;48.296;8.874;2022-08-07T07:17:19;3.83;;;2.80;;
13685;SDS011;6915;48.296;8.874;2022-08-07T07:19:52;3.10;;;2.80;;
13685;SDS011;6915;48.296;8.874;2022-08-07T07:22:22;2.77;;;2.57;;
13685;SDS011;6915;48.296;8.874;2022-08-07T07:24:51;3.17;;;2.87;;
13685;SDS011;6915;48.296;8.874;2022-08-07T07:27:19;2.97;;;2.77;;
13685;SDS011;6915;48.296;8.874;2022-08-07T07:29:50;3.03;;;2.80;;
13685;SDS011;6915;48.296;8.874;2022-08-07T07:32:22;3.20;;;3.00;;
13685;SDS011;6915;48.296;8.874;2022-08-07T07:34:51;3.20;;;2.90;;
13685;SDS011;6915;48.296;8.874;2022-08-07T07:37:20;3.27;;;2.90;;
13685;SDS011;6915;48.296;8.874;2022-08-07T07:39:49;2.70;;;2.50;;
13685;SDS011;6915;48.296;8.874;2022-08-07T07:42:21;3.20;;;2.90;;
13685;SDS011;6915;48.296;8.874;2022-08-07T07:44:51;3.17;;;2.67;;
13685;SDS011;6915;48.296;8.874;2022-08-07T07:47:20;3.50;;;2.30;;
13685;SDS011;6915;48.296;8.874;2022-08-07T07:49:50;4.37;;;2.93;;
13685;SDS011;6915;48.296;8.874;2022-08-07T07:52:19;3.00;;;2.63;;
13685;SDS011;6915;48.296;8.874;2022-08-07T07:54:48;2.67;;;2.40;;
13685;SDS011;6915;48.296;8.874;2022-08-07T07:57:17;2.80;;;2.60;;
13685;SDS011;6915;48.296;8.874;2022-08-07T07:59:46;2.83;;;2.63;;
13685;SDS011;6915;48.296;8.874;2022-08-07T08:02:18;2.23;;;2.13;;
13685;SDS011;6915;48.296;8.874;2022-08-07T08:04:46;2.63;;;2.42;;
13685;SDS011;6915;48.296;8.874;2022-08-07T08:07:14;2.67;;;2.47;;
13685;SDS011;6915;48.296;8.874;2022-08-07T08:09:42;2.60;;;2.40;;
13685;SDS011;6915;48.296;8.874;2022-08-07T08:12:14;2.30;;;2.10;;
13685;SDS011;6915;48.296;8.874;2022-08-07T08:14:41;3.45;;;1.90;;
13685;SDS011;6915;48.296;8.874;2022-08-07T08:17:09;4.53;;;2.30;;
13685;SDS011;6915;48.296;8.874;2022-08-07T08:19:40;3.50;;;2.20;;
13685;SDS011;6915;48.296;8.874;2022-08-07T08:22:09;2.60;;;2.22;;
13685;SDS011;6915;48.296;8.874;2022-08-07T08:24:55;2.10;;;2.00;;
13685;SDS011;6915;48.296;8.874;2022-08-07T08:27:41;2.28;;;1.85;;
13685;SDS011;6915;48.296;8.874;2022-08-07T08:30:10;3.53;;;1.80;;
13685;SDS011;6915;48.296;8.874;2022-08-07T08:32:39;1.65;;;1.60;;
13685;SDS011;6915;48.296;8.874;2022-08-07T08:35:11;2.80;;;2.10;;
13685;SDS011;6915;48.296;8.874;2022-08-07T08:37:42;1.85;;;1.70;;
13685;SDS011;6915;48.296;8.874;2022-08-07T08:40:12;2.00;;;1.80;;
13685;SDS011;6915;48.296;8.874;2022-08-07T08:42:48;1.60;;;1.50;;
13685;SDS011;6915;48.296;8.874;2022-08-07T08:45:21;1.88;;;1.77;;
13685;SDS011;6915;48.296;8.874;2022-08-07T08:48:05;2.00;;;1.67;;
13685;SDS011;6915;48.296;8.874;2022-08-07T08:50:39;1.70;;;1.60;;
13685;SDS011;6915;48.296;8.874;2022-08-07T08:53:14;1.70;;;1.60;;
13685;SDS011;6915;48.296;8.874;2022-08-07T08:55:50;1.70;;;1.60;;
13685;SDS011;6915;48.296;8.874;2022-08-07T08:58:24;2.25;;;1.65;;
13685;SDS011;6915;48.296;8.874;2022-08-07T09:00:58;1.60;;;1.50;;
13685;SDS011;6915;48.296;8.874;2022-08-07T09:03:29;2.28;;;1.67;;
13685;SDS011;6915;48.296;8.874;2022-08-07T09:06:04;2.08;;;1.88;;
13685;SDS011;6915;48.296;8.874;2022-08-07T09:08:37;1.90;;;1.80;;
13685;SDS011;6915;48.296;8.874;2022-08-07T09:11:13;2.85;;;1.90;;
13685;SDS011;6915;48.296;8.874;2022-08-07T09:13:45;1.70;;;1.60;;
13685;SDS011;6915;48.296;8.874;2022-08-07T09:16:25;2.92;;;1.80;;
13685;SDS011;6915;48.296;8.874;2022-08-07T09:19:08;2.22;;;1.73;;
13685;SDS011;6915;48.296;8.874;2022-08-07T09:21:44;3.45;;;1.58;;
13685;SDS011;6915;48.296;8.874;2022-08-07T09:24:20;1.50;;;1.40;;
13685;SDS011;6915;48.296;8.874;2022-08-07T09:27:08;1.60;;;1.50;;
13685;SDS011;6915;48.296;8.874;2022-08-07T09:29:45;1.25;;;1.23;;
13685;SDS011;6915;48.296;8.874;2022-08-07T09:32:24;1.52;;;1.40;;
13685;SDS011;6915;48.296;8.874;2022-08-07T09:35:02;1.95;;;1.85;;
13685;SDS011;6915;48.296;8.874;2022-08-07T09:37:39;1.60;;;1.50;;
13685;SDS011;6915;48.296;8.874;2022-08-07T09:40:13;4.18;;;1.35;;
13685;SDS011;6915;48.296;8.874;2022-08-07T09:42:47;1.50;;;1.38;;
13685;SDS011;6915;48.296;8.874;2022-08-07T09:45:20;1.98;;;1.60;;
13685;SDS011;6915;48.296;8.874;2022-08-07T09:48:00;3.10;;;1.50;;
13685;SDS011;6915;48.296;8.874;2022-08-07T09:50:38;2.13;;;1.50;;
13685;SDS011;6915;48.296;8.874;2022-08-07T09:53:17;1.77;;;1.27;;
13685;SDS011;6915;48.296;8.874;2022-08-07T09:55:52;1.83;;;1.30;;
13685;SDS011;6915;48.296;8.874;2022-08-07T09:58:52;1.40;;;1.30;;
13685;SDS011;6915;48.296;8.874;2022-08-07T10:01:31;1.85;;;1.67;;
13685;SDS011;6915;48.296;8.874;2022-08-07T10:04:24;1.50;;;1.40;;
13685;SDS011;6915;48.296;8.874;2022-08-07T10:07:04;2.45;;;1.35;;
13685;SDS011;6915;48.296;8.874;2022-08-07T10:10:04;2.97;;;1.20;;
13685;SDS011;6915;48.296;8.874;2022-08-07T10:12:41;1.10;;;1.10;;
13685;SDS011;6915;48.296;8.874;2022-08-07T10:15:24;1.58;;;1.48;;
13685;SDS011;6915;48.296;8.874;2022-08-07T10:18:08;2.70;;;1.35;;
13685;SDS011;6915;48.296;8.874;2022-08-07T10:20:50;1.48;;;1.13;;
13685;SDS011;6915;48.296;8.874;2022-08-07T10:23:37;2.25;;;1.30;;
13685;SDS011;6915;48.296;8.874;2022-08-07T10:26:19;1.42;;;1.10;;
13685;SDS011;6915;48.296;8.874;2022-08-07T10:28:58;2.17;;;1.15;;
13685;SDS011;6915;48.296;8.874;2022-08-07T10:31:47;1.92;;;1.13;;
13685;SDS011;6915;48.296;8.874;2022-08-07T10:34:26;1.23;;;1.02;;
13685;SDS011;6915;48.296;8.874;2022-08-07T10:39:57;3.50;;;1.33;;
13685;SDS011;6915;48.296;8.874;2022-08-07T10:42:33;2.63;;;0.93;;
13685;SDS011;6915;48.296;8.874;2022-08-07T10:47:56;1.20;;;1.05;;
13685;SDS011;6915;48.296;8.874;2022-08-07T10:50:33;1.55;;;1.02;;
13685;SDS011;6915;48.296;8.874;2022-08-07T10:53:09;1.83;;;0.95;;
13685;SDS011;6915;48.296;8.874;2022-08-07T10:55:43;1.00;;;0.98;;
13685;SDS011;6915;48.296;8.874;2022-08-07T10:58:19;1.10;;;1.00;;
13685;SDS011;6915;48.296;8.874;2022-08-07T11:00:57;0.90;;;0.90;;
13685;SDS011;6915;48.296;8.874;2022-08-07T11:03:38;1.23;;;1.00;;
13685;SDS011;6915;48.296;8.874;2022-08-07T11:06:12;0.70;;;0.70;;
13685;SDS011;6915;48.296;8.874;2022-08-07T11:08:47;1.10;;;1.00;;
13685;SDS011;6915;48.296;8.874;2022-08-07T11:11:20;1.25;;;0.98;;
13685;SDS011;6915;48.296;8.874;2022-08-07T11:13:52;1.50;;;1.00;;
13685;SDS011;6915;48.296;8.874;2022-08-07T11:16:26;1.20;;;0.80;;
13685;SDS011;6915;48.296;8.874;2022-08-07T11:18:57;1.42;;;1.00;;
13685;SDS011;6915;48.296;8.874;2022-08-07T11:21:34;1.15;;;0.80;;
13685;SDS011;6915;48.296;8.874;2022-08-07T11:24:07;2.72;;;0.98;;
13685;SDS011;6915;48.296;8.874;2022-08-07T11:26:46;1.67;;;0.90;;
13685;SDS011;6915;48.296;8.874;2022-08-07T11:29:23;1.10;;;0.70;;
13685;SDS011;6915;48.296;8.874;2022-08-07T11:32:00;1.63;;;0.80;;
13685;SDS011;6915;48.296;8.874;2022-08-07T11:34:35;2.80;;;0.90;;
13685;SDS011;6915;48.296;8.874;2022-08-07T11:37:10;1.10;;;0.80;;
13685;SDS011;6915;48.296;8.874;2022-08-07T11:39:47;1.10;;;1.05;;
13685;SDS011;6915;48.296;8.874;2022-08-07T11:42:25;2.15;;;1.10;;
13685;SDS011;6915;48.296;8.874;2022-08-07T11:45:09;1.33;;;0.75;;
13685;SDS011;6915;48.296;8.874;2022-08-07T11:47:47;2.65;;;0.90;;
13685;SDS011;6915;48.296;8.874;2022-08-07T11:50:26;2.33;;;0.90;;
13685;SDS011;6915;48.296;8.874;2022-08-07T11:53:09;1.20;;;0.85;;
13685;SDS011;6915;48.296;8.874;2022-08-07T11:56:00;0.85;;;0.80;;
13685;SDS011;6915;48.296;8.874;2022-08-07T11:58:40;1.65;;;0.98;;
13685;SDS011;6915;48.296;8.874;2022-08-07T12:01:22;1.63;;;1.02;;
13685;SDS011;6915;48.296;8.874;2022-08-07T12:04:15;0.80;;;0.80;;
13685;SDS011;6915;48.296;8.874;2022-08-07T12:06:53;0.70;;;0.70;;
13685;SDS011;6915;48.296;8.874;2022-08-07T12:09:27;2.65;;;1.00;;
13685;SDS011;6915;48.296;8.874;2022-08-07T12:12:02;0.85;;;0.85;;
13685;SDS011;6915;48.296;8.874;2022-08-07T12:14:34;0.77;;;0.70;;
13685;SDS011;6915;48.296;8.874;2022-08-07T12:17:15;0.90;;;0.90;;
13685;SDS011;6915;48.296;8.874;2022-08-07T12:19:47;2.30;;;1.00;;
13685;SDS011;6915;48.296;8.874;2022-08-07T12:22:18;0.70;;;0.70;;
13685;SDS011;6915;48.296;8.874;2022-08-07T12:24:50;1.40;;;0.85;;
13685;SDS011;6915;48.296;8.874;2022-08-07T12:27:43;1.02;;;0.75;;
13685;SDS011;6915;48.296;8.874;2022-08-07T12:30:13;1.15;;;0.93;;
13685;SDS011;6915;48.296;8.874;2022-08-07T12:32:46;1.05;;;0.95;;
13685;SDS011;6915;48.296;8.874;2022-08-07T12:35:20;1.00;;;1.00;;
13685;SDS011;6915;48.296;8.874;2022-08-07T12:37:49;1.02;;;1.02;;
13685;SDS011;6915;48.296;8.874;2022-08-07T12:40:20;1.08;;;1.05;;
13685;SDS011;6915;48.296;8.874;2022-08-07T12:42:49;1.40;;;0.90;;
13685;SDS011;6915;48.296;8.874;2022-08-07T12:45:18;1.20;;;0.80;;
13685;SDS011;6915;48.296;8.874;2022-08-07T12:47:51;1.00;;;0.90;;
13685;SDS011;6915;48.296;8.874;2022-08-07T12:50:27;2.10;;;1.15;;
13685;SDS011;6915;48.296;8.874;2022-08-07T12:53:01;1.10;;;0.90;;
13685;SDS011;6915;48.296;8.874;2022-08-07T12:55:37;1.02;;;0.80;;
13685;SDS011;6915;48.296;8.874;2022-08-07T12:58:09;1.00;;;0.90;;
13685;SDS011;6915;48.296;8.874;2022-08-07T13:00:46;2.05;;;0.90;;
13685;SDS011;6915;48.296;8.874;2022-08-07T13:06:31;0.80;;;0.80;;
13685;SDS011;6915;48.296;8.874;2022-08-07T13:09:09;0.82;;;0.82;;
13685;SDS011;6915;48.296;8.874;2022-08-07T13:11:46;1.35;;;1.00;;
13685;SDS011;6915;48.296;8.874;2022-08-07T13:14:21;0.75;;;0.75;;
13685;SDS011;6915;48.296;8.874;2022-08-07T13:17:04;1.10;;;0.90;;
13685;SDS011;6915;48.296;8.874;2022-08-07T13:19:41;1.00;;;1.00;;
13685;SDS011;6915;48.296;8.874;2022-08-07T13:22:13;1.95;;;1.00;;
13685;SDS011;6915;48.296;8.874;2022-08-07T13:24:47;1.95;;;1.00;;
13685;SDS011;6915;48.296;8.874;2022-08-07T13:27:19;1.65;;;0.93;;
13685;SDS011;6915;48.296;8.874;2022-08-07T13:29:51;0.80;;;0.75;;
13685;SDS011;6915;48.296;8.874;2022-08-07T13:32:24;1.23;;;0.90;;
13685;SDS011;6915;48.296;8.874;2022-08-07T13:34:59;0.80;;;0.80;;
13685;SDS011;6915;48.296;8.874;2022-08-07T13:37:30;1.10;;;0.85;;
13685;SDS011;6915;48.296;8.874;2022-08-07T13:40:14;1.40;;;0.98;;
13685;SDS011;6915;48.296;8.874;2022-08-07T13:42:50;0.98;;;0.90;;
13685;SDS011;6915;48.296;8.874;2022-08-07T13:45:21;0.80;;;0.80;;
13685;SDS011;6915;48.296;8.874;2022-08-07T13:47:52;0.85;;;0.80;;
13685;SDS011;6915;48.296;8.874;2022-08-07T13:50:26;0.82;;;0.82;;
13685;SDS011;6915;48.296;8.874;2022-08-07T13:52:54;1.17;;;1.08;;
13685;SDS011;6915;48.296;8.874;2022-08-07T13:55:23;0.88;;;0.88;;
13685;SDS011;6915;48.296;8.874;2022-08-07T13:57:52;1.67;;;0.80;;
13685;SDS011;6915;48.296;8.874;2022-08-07T14:00:45;2.58;;;0.80;;
13685;SDS011;6915;48.296;8.874;2022-08-07T14:03:13;2.25;;;0.90;;
13685;SDS011;6915;48.296;8.874;2022-08-07T14:05:45;0.70;;;0.70;;
13685;SDS011;6915;48.296;8.874;2022-08-07T14:08:16;0.80;;;0.80;;
13685;SDS011;6915;48.296;8.874;2022-08-07T14:10:45;0.80;;;0.73;;
13685;SDS011;6915;48.296;8.874;2022-08-07T14:13:15;0.85;;;0.85;;
13685;SDS011;6915;48.296;8.874;2022-08-07T14:15:49;1.10;;;0.90;;
13685;SDS011;6915;48.296;8.874;2022-08-07T14:18:21;0.82;;;0.82;;
13685;SDS011;6915;48.296;8.874;2022-08-07T14:21:01;1.55;;;0.95;;
13685;SDS011;6915;48.296;8.874;2022-08-07T14:23:32;1.52;;;1.10;;
13685;SDS011;6915;48.296;8.874;2022-08-07T14:26:04;1.08;;;0.95;;
13685;SDS011;6915;48.296;8.874;2022-08-07T14:28:40;0.95;;;0.93;;
13685;SDS011;6915;48.296;8.874;2022-08-07T14:31:09;0.85;;;0.85;;
13685;SDS011;6915;48.296;8.874;2022-08-07T14:33:37;1.23;;;1.13;;
13685;SDS011;6915;48.296;8.874;2022-08-07T14:36:06;1.40;;;1.10;;
13685;SDS011;6915;48.296;8.874;2022-08-07T14:38:35;0.82;;;0.82;;
13685;SDS011;6915;48.296;8.874;2022-08-07T14:41:04;0.80;;;0.80;;
13685;SDS011;6915;48.296;8.874;2022-08-07T14:43:33;0.85;;;0.85;;
13685;SDS011;6915;48.296;8.874;2022-08-07T14:46:05;1.55;;;1.10;;
13685;SDS011;6915;48.296;8.874;2022-08-07T14:48:35;1.10;;;1.00;;
13685;SDS011;6915;48.296;8.874;2022-08-07T14:51:07;2.03;;;1.05;;
13685;SDS011;6915;48.296;8.874;2022-08-07T14:53:38;0.98;;;0.88;;
13685;SDS011;6915;48.296;8.874;2022-08-07T14:56:09;3.15;;;0.88;;
13685;SDS011;6915;48.296;8.874;2022-08-07T14:58:38;1.38;;;1.05;;
13685;SDS011;6915;48.296;8.874;2022-08-07T15:01:06;0.70;;;0.70;;
13685;SDS011;6915;48.296;8.874;2022-08-07T15:03:35;1.42;;;0.98;;
13685;SDS011;6915;48.296;8.874;2022-08-07T15:06:04;0.80;;;0.80;;
13685;SDS011;6915;48.296;8.874;2022-08-07T15:08:34;1.67;;;0.90;;
13685;SDS011;6915;48.296;8.874;2022-08-07T15:11:03;1.00;;;0.82;;
13685;SDS011;6915;48.296;8.874;2022-08-07T15:13:34;2.55;;;0.98;;
13685;SDS011;6915;48.296;8.874;2022-08-07T15:16:07;1.33;;;1.10;;
13685;SDS011;6915;48.296;8.874;2022-08-07T15:18:37;0.80;;;0.80;;
13685;SDS011;6915;48.296;8.874;2022-08-07T15:21:10;1.25;;;1.02;;
13685;SDS011;6915;48.296;8.874;2022-08-07T15:23:41;0.95;;;0.77;;
13685;SDS011;6915;48.296;8.874;2022-08-07T15:26:13;1.52;;;0.90;;
13685;SDS011;6915;48.296;8.874;2022-08-07T15:28:41;1.10;;;1.00;;
13685;SDS011;6915;48.296;8.874;2022-08-07T15:31:09;1.17;;;1.08;;
13685;SDS011;6915;48.296;8.874;2022-08-07T15:33:40;0.95;;;0.90;;
13685;SDS011;6915;48.296;8.874;2022-08-07T15:36:10;2.00;;;1.05;;
13685;SDS011;6915;48.296;8.874;2022-08-07T15:38:38;1.85;;;1.00;;
13685;SDS011;6915;48.296;8.874;2022-08-07T15:41:08;2.60;;;1.20;;
13685;SDS011;6915;48.296;8.874;2022-08-07T15:43:38;0.95;;;0.95;;